createdAt,value
2022-08-01T00:01:16.566Z,1.60
2022-08-01T00:03:44.143Z,1.30
2022-08-01T00:06:11.788Z,1.27
2022-08-01T00:08:39.429Z,3.25
2022-08-01T00:11:07.170Z,1.70
2022-08-01T00:13:34.738Z,1.88
2022-08-01T00:16:02.389Z,3.17
2022-08-01T00:18:31.325Z,2.25
2022-08-01T00:20:59.041Z,1.27
2022-08-01T00:23:26.587Z,1.52
2022-08-01T00:25:54.220Z,2.90
2022-08-01T00:28:21.736Z,1.80
2022-08-01T00:30:49.388Z,2.97
2022-08-01T00:33:16.930Z,1.60
2022-08-01T00:35:45.868Z,1.77
2022-08-01T00:38:13.513Z,1.35
2022-08-01T00:40:41.118Z,3.85
2022-08-01T00:43:08.688Z,1.65
2022-08-01T00:45:36.323Z,3.55
2022-08-01T00:48:04.008Z,2.45
2022-08-01T00:50:31.675Z,2.03
2022-08-01T00:53:01.160Z,1.27
2022-08-01T00:55:28.938Z,3.10
2022-08-01T00:58:04.770Z,1.83
2022-08-01T01:00:44.833Z,3.60
2022-08-01T01:03:23.834Z,4.10
2022-08-01T01:06:07.451Z,1.92
2022-08-01T01:08:39.222Z,3.45
2022-08-01T01:11:09.941Z,3.17
2022-08-01T01:13:49.567Z,2.60
2022-08-01T01:16:18.962Z,4.25
2022-08-01T01:18:47.358Z,2.33
2022-08-01T01:21:22.523Z,2.95
2022-08-01T01:23:58.485Z,2.58
2022-08-01T01:26:28.612Z,3.30
2022-08-01T01:29:04.988Z,5.22
2022-08-01T01:31:33.078Z,5.55
2022-08-01T01:34:00.660Z,1.42
2022-08-01T01:36:28.312Z,3.25
2022-08-01T01:38:55.882Z,3.25
2022-08-01T01:41:23.434Z,5.80
2022-08-01T01:43:51.532Z,3.50
2022-08-01T01:46:23.489Z,3.22
2022-08-01T01:48:51.150Z,10.25
2022-08-01T01:51:19.273Z,2.60
2022-08-01T01:53:46.852Z,1.92
2022-08-01T01:56:14.522Z,2.78
2022-08-01T01:58:42.109Z,3.03
2022-08-01T02:01:14.348Z,3.70
2022-08-01T02:03:43.994Z,4.95
2022-08-01T02:06:11.581Z,2.47
2022-08-01T02:08:39.159Z,4.03
2022-08-01T02:11:22.412Z,4.22
2022-08-01T02:13:52.111Z,5.07
2022-08-01T02:16:19.889Z,2.50
2022-08-01T02:18:48.789Z,2.30
2022-08-01T02:21:18.343Z,2.30
2022-08-01T02:23:45.994Z,1.65
2022-08-01T02:26:15.783Z,1.17
2022-08-01T02:28:43.853Z,2.30
2022-08-01T02:31:12.541Z,3.45
2022-08-01T02:33:40.567Z,3.50
2022-08-01T02:36:29.748Z,1.35
2022-08-01T02:38:58.087Z,2.97
2022-08-01T02:41:25.908Z,5.45
2022-08-01T02:43:54.152Z,2.53
2022-08-01T02:46:23.097Z,2.95
2022-08-01T02:48:51.249Z,3.22
2022-08-01T02:51:20.196Z,2.78
2022-08-01T02:53:48.194Z,3.00
2022-08-01T02:56:15.736Z,4.15
2022-08-01T02:58:43.340Z,2.40
2022-08-01T03:01:23.131Z,3.38
2022-08-01T03:03:55.668Z,3.55
2022-08-01T03:06:24.620Z,2.88
2022-08-01T03:08:52.219Z,2.40
2022-08-01T03:11:19.762Z,3.10
2022-08-01T03:13:47.368Z,4.60
2022-08-01T03:16:14.937Z,2.85
2022-08-01T03:18:42.524Z,1.77
2022-08-01T03:21:10.051Z,2.55
2022-08-01T03:23:39.068Z,2.78
2022-08-01T03:26:07.013Z,4.60
2022-08-01T03:28:34.596Z,6.05
2022-08-01T03:31:02.188Z,2.75
2022-08-01T03:33:29.782Z,4.53
2022-08-01T03:35:57.326Z,2.85
2022-08-01T03:38:25.207Z,5.18
2022-08-01T03:40:55.310Z,4.40
2022-08-01T03:43:25.081Z,2.85
2022-08-01T03:45:52.929Z,3.30
2022-08-01T03:48:20.925Z,4.60
2022-08-01T03:50:52.849Z,3.42
2022-08-01T03:53:20.965Z,2.65
2022-08-01T03:55:48.630Z,2.88
2022-08-01T03:58:17.565Z,4.07
2022-08-01T04:00:45.201Z,6.15
2022-08-01T04:03:22.448Z,5.93
2022-08-01T04:05:50.053Z,4.47
2022-08-01T04:08:17.632Z,5.00
2022-08-01T04:10:45.214Z,3.78
2022-08-01T04:13:13.685Z,4.38
2022-08-01T04:15:42.830Z,6.37
2022-08-01T04:18:10.476Z,4.40
2022-08-01T04:20:38.080Z,5.32
2022-08-01T04:23:05.789Z,4.18
2022-08-01T04:25:34.749Z,4.05
2022-08-01T04:28:04.877Z,5.60
2022-08-01T04:30:33.248Z,7.32
2022-08-01T04:33:02.273Z,7.23
2022-08-01T04:36:01.888Z,6.57
2022-08-01T04:38:19.876Z,7.75
2022-08-01T04:40:47.513Z,6.65
2022-08-01T04:43:15.307Z,6.13
2022-08-01T04:45:44.403Z,7.93
2022-08-01T04:48:13.400Z,5.15
2022-08-01T04:50:42.797Z,11.07
2022-08-01T04:53:14.024Z,10.88
2022-08-01T04:55:41.681Z,6.65
2022-08-01T04:58:09.228Z,9.52
2022-08-01T05:00:36.819Z,9.23
2022-08-01T05:03:04.575Z,5.75
2022-08-01T05:05:51.320Z,10.93
2022-08-01T05:08:20.335Z,7.10
2022-08-01T05:10:47.957Z,9.13
2022-08-01T05:13:15.528Z,7.07
2022-08-01T05:15:43.497Z,11.05
2022-08-01T05:18:11.231Z,14.55
2022-08-01T05:20:38.886Z,6.80
2022-08-01T05:23:06.625Z,8.60
2022-08-01T05:25:57.118Z,7.78
2022-08-01T05:28:29.195Z,10.32
2022-08-01T05:30:57.520Z,10.38
2022-08-01T05:33:25.377Z,9.55
2022-08-01T05:35:52.975Z,6.72
2022-08-01T05:38:20.644Z,9.27
2022-08-01T05:40:49.610Z,7.07
2022-08-01T05:43:17.247Z,9.77
2022-08-01T05:45:45.511Z,9.45
2022-08-01T05:48:13.240Z,11.73
2022-08-01T05:50:40.788Z,12.77
2022-08-01T05:53:08.650Z,11.23
2022-08-01T05:55:36.541Z,8.27
2022-08-01T05:58:05.553Z,10.27
2022-08-01T06:00:33.162Z,10.25
2022-08-01T06:03:00.820Z,12.05
2022-08-01T06:05:28.552Z,13.93
2022-08-01T06:07:56.280Z,15.27
2022-08-01T06:10:24.197Z,10.75
2022-08-01T06:12:51.819Z,12.18
2022-08-01T06:15:20.864Z,10.75
2022-08-01T06:17:48.495Z,12.88
2022-08-01T06:20:16.237Z,10.85
2022-08-01T06:22:43.837Z,8.90
2022-08-01T06:25:11.714Z,16.52
2022-08-01T06:27:39.316Z,12.07
2022-08-01T06:30:08.428Z,9.80
2022-08-01T06:32:37.482Z,12.15
2022-08-01T06:35:05.499Z,12.70
2022-08-01T06:37:33.368Z,16.35
2022-08-01T06:40:02.280Z,16.02
2022-08-01T06:42:29.980Z,12.93
2022-08-01T06:44:57.733Z,13.25
2022-08-01T06:47:25.346Z,12.77
2022-08-01T06:49:54.418Z,11.18
2022-08-01T06:52:22.030Z,9.95
2022-08-01T06:54:49.611Z,9.95
2022-08-01T06:57:17.457Z,10.23
2022-08-01T06:59:51.816Z,8.02
2022-08-01T07:02:22.438Z,8.77
2022-08-01T07:04:50.171Z,9.13
2022-08-01T07:07:19.134Z,8.30
2022-08-01T07:09:53.070Z,8.20
2022-08-01T07:12:20.939Z,8.68
2022-08-01T07:14:48.580Z,10.70
2022-08-01T07:17:16.253Z,9.00
2022-08-01T07:19:44.203Z,7.35
2022-08-01T07:22:14.992Z,10.82
2022-08-01T07:24:54.578Z,7.78
2022-08-01T07:27:25.699Z,7.97
2022-08-01T07:30:19.473Z,12.35
2022-08-01T07:32:47.141Z,6.35
2022-08-01T07:35:14.881Z,8.38
2022-08-01T07:37:48.562Z,7.75
2022-08-01T07:40:19.149Z,7.53
2022-08-01T07:42:46.723Z,6.43
2022-08-01T07:45:14.574Z,6.03
2022-08-01T07:47:42.474Z,10.23
2022-08-01T07:50:21.109Z,9.82
2022-08-01T07:52:48.867Z,10.68
2022-08-01T07:55:17.924Z,10.77
2022-08-01T07:57:45.939Z,7.13
2022-08-01T08:00:14.191Z,8.95
2022-08-01T08:02:42.303Z,8.80
2022-08-01T08:05:10.212Z,9.18
2022-08-01T08:10:10.207Z,13.52
2022-08-01T08:12:39.422Z,7.32
2022-08-01T08:15:07.787Z,10.38
2022-08-01T08:17:36.661Z,10.27
2022-08-01T08:20:05.025Z,13.70
2022-08-01T08:22:36.777Z,6.32
2022-08-01T08:25:04.527Z,4.85
2022-08-01T08:27:35.630Z,3.80
2022-08-01T08:30:08.534Z,6.68
2022-08-01T08:32:36.705Z,5.10
2022-08-01T08:35:04.617Z,6.18
2022-08-01T08:37:32.278Z,5.70
2022-08-01T08:40:07.231Z,5.60
2022-08-01T08:42:34.972Z,10.05
2022-08-01T08:45:02.936Z,4.55
2022-08-01T08:47:31.987Z,5.82
2022-08-01T08:49:59.682Z,7.22
2022-08-01T08:52:52.633Z,7.78
2022-08-01T08:55:20.318Z,6.57
2022-08-01T08:57:47.926Z,9.93
2022-08-01T09:00:15.929Z,4.82
2022-08-01T09:02:45.336Z,7.65
2022-08-01T09:05:16.196Z,5.47
2022-08-01T09:07:46.840Z,4.30
2022-08-01T09:10:14.713Z,8.95
2022-08-01T09:12:42.889Z,3.43
2022-08-01T09:15:10.984Z,5.43
2022-08-01T09:17:41.949Z,4.00
2022-08-01T09:20:11.580Z,4.68
2022-08-01T09:22:39.274Z,5.18
2022-08-01T09:25:07.846Z,3.42
2022-08-01T09:27:35.553Z,4.68
2022-08-01T09:30:09.932Z,5.25
2022-08-01T09:32:39.311Z,5.20
2022-08-01T09:35:29.995Z,3.25
2022-08-01T09:38:15.554Z,5.28
2022-08-01T09:40:46.883Z,3.75
2022-08-01T09:43:15.046Z,4.38
2022-08-01T09:45:43.943Z,4.22
2022-08-01T09:48:14.094Z,4.55
2022-08-01T09:50:44.099Z,3.13
2022-08-01T09:55:39.436Z,4.75
2022-08-01T09:58:07.259Z,5.80
2022-08-01T10:00:45.151Z,4.63
2022-08-01T10:03:22.914Z,4.07
2022-08-01T10:05:54.291Z,4.85
2022-08-01T10:08:24.157Z,6.57
2022-08-01T10:11:07.096Z,4.65
2022-08-01T10:13:36.961Z,4.55
2022-08-01T10:16:05.047Z,2.85
2022-08-01T10:18:34.195Z,5.05
2022-08-01T10:21:03.496Z,5.90
2022-08-01T10:23:40.237Z,3.45
2022-08-01T10:26:09.173Z,5.43
2022-08-01T10:28:38.691Z,2.70
2022-08-01T10:31:13.291Z,4.43
2022-08-01T10:33:52.739Z,3.75
2022-08-01T10:36:25.578Z,3.53
2022-08-01T10:38:53.814Z,4.90
2022-08-01T10:41:22.228Z,7.35
2022-08-01T10:43:49.809Z,4.03
2022-08-01T10:46:17.587Z,4.03
2022-08-01T10:48:47.094Z,6.05
2022-08-01T10:51:18.193Z,9.13
2022-08-01T10:53:54.136Z,5.65
2022-08-01T10:56:39.857Z,3.55
2022-08-01T10:59:11.809Z,8.27
2022-08-01T11:01:45.046Z,3.13
2022-08-01T11:04:16.430Z,2.65
2022-08-01T11:06:59.887Z,4.70
2022-08-01T11:09:36.315Z,3.45
2022-08-01T11:12:13.421Z,5.13
2022-08-01T11:15:10.238Z,3.35
2022-08-01T11:17:42.051Z,3.22
2022-08-01T11:20:11.000Z,7.05
2022-08-01T11:22:59.798Z,6.00
2022-08-01T11:26:05.561Z,5.43
2022-08-01T11:30:56.433Z,5.28
2022-08-01T11:33:49.426Z,3.92
2022-08-01T11:36:36.966Z,4.57
2022-08-01T11:39:15.646Z,5.43
2022-08-01T11:41:45.298Z,3.22
2022-08-01T11:44:14.458Z,5.85
2022-08-01T11:46:49.786Z,4.95
2022-08-01T11:49:29.632Z,3.70
2022-08-01T11:52:00.916Z,2.45
2022-08-01T11:54:35.103Z,4.30
2022-08-01T11:57:16.814Z,1.85
2022-08-01T12:00:02.899Z,1.90
2022-08-01T12:02:48.076Z,2.35
2022-08-01T12:05:17.641Z,2.80
2022-08-01T12:07:45.910Z,3.70
2022-08-01T12:10:13.983Z,5.88
2022-08-01T12:12:44.320Z,5.60
2022-08-01T12:15:14.014Z,2.58
2022-08-01T12:17:47.034Z,2.75
2022-08-01T12:20:30.103Z,2.55
2022-08-01T12:22:58.680Z,4.63
2022-08-01T12:25:26.475Z,1.92
2022-08-01T12:27:56.513Z,3.42
2022-08-01T12:30:26.107Z,2.72
2022-08-01T12:32:54.119Z,2.80
2022-08-01T12:35:23.917Z,1.33
2022-08-01T12:37:51.959Z,1.60
2022-08-01T12:40:20.054Z,3.42
2022-08-01T12:42:48.151Z,2.42
2022-08-01T12:45:17.837Z,2.30
2022-08-01T12:47:46.793Z,2.53
2022-08-01T12:50:14.943Z,3.22
2022-08-01T12:52:42.561Z,3.38
2022-08-01T12:55:11.789Z,1.92
2022-08-01T12:57:40.500Z,3.92
2022-08-01T13:00:09.475Z,3.58
2022-08-01T13:05:06.957Z,4.53
2022-08-01T13:07:45.389Z,2.70
2022-08-01T13:10:13.744Z,3.22
2022-08-01T13:12:41.601Z,3.65
2022-08-01T13:15:22.643Z,5.95
2022-08-01T13:17:50.400Z,3.65
2022-08-01T13:20:28.998Z,5.80
2022-08-01T13:22:56.714Z,11.57
2022-08-01T13:25:26.899Z,4.35
2022-08-01T13:28:10.207Z,6.40
2022-08-01T13:30:38.123Z,4.70
2022-08-01T13:33:05.808Z,4.22
2022-08-01T13:35:34.792Z,5.75
2022-08-01T13:38:02.921Z,3.17
2022-08-01T13:40:30.605Z,3.67
2022-08-01T13:42:58.356Z,3.22
2022-08-01T13:45:26.444Z,4.22
2022-08-01T13:48:12.487Z,3.90
2022-08-01T13:50:43.768Z,4.00
2022-08-01T13:53:11.689Z,3.30
2022-08-01T13:55:39.550Z,2.92
2022-08-01T13:58:07.453Z,5.22
2022-08-01T14:00:35.868Z,3.05
2022-08-01T14:03:03.469Z,3.70
2022-08-01T14:05:31.510Z,2.53
2022-08-01T14:08:00.493Z,2.33
2022-08-01T14:10:29.152Z,3.03
2022-08-01T14:12:57.438Z,5.43
2022-08-01T14:15:37.856Z,2.25
2022-08-01T14:18:07.652Z,2.65
2022-08-01T14:20:37.820Z,3.00
2022-08-01T14:23:08.911Z,3.72
2022-08-01T14:26:03.262Z,3.28
2022-08-01T14:28:26.410Z,2.75
2022-08-01T14:30:56.329Z,3.08
2022-08-01T14:33:24.234Z,2.85
2022-08-01T14:36:05.443Z,4.03
2022-08-01T14:38:41.040Z,3.88
2022-08-01T14:41:09.075Z,2.13
2022-08-01T14:43:36.669Z,6.43
2022-08-01T14:46:05.104Z,2.45
2022-08-01T14:48:33.030Z,1.77
2022-08-01T14:51:03.406Z,3.58
2022-08-01T14:53:31.162Z,1.20
2022-08-01T14:56:00.192Z,3.78
2022-08-01T14:58:27.920Z,1.42
2022-08-01T15:00:59.645Z,1.20
2022-08-01T15:03:28.859Z,5.15
2022-08-01T15:05:56.673Z,1.40
2022-08-01T15:08:24.814Z,3.38
2022-08-01T15:10:52.745Z,1.37
2022-08-01T15:13:22.013Z,1.52
2022-08-01T15:15:49.665Z,2.30
2022-08-01T15:18:17.268Z,5.65
2022-08-01T15:20:46.041Z,1.10
2022-08-01T15:23:13.620Z,2.25
2022-08-01T15:25:42.284Z,2.70
2022-08-01T15:28:11.141Z,1.13
2022-08-01T15:30:40.049Z,3.95
2022-08-01T15:33:07.895Z,3.00
2022-08-01T15:35:35.635Z,3.20
2022-08-01T15:38:03.345Z,1.52
2022-08-01T15:40:35.237Z,2.17
2022-08-01T15:43:03.227Z,3.55
2022-08-01T15:45:47.337Z,1.60
2022-08-01T15:48:17.317Z,2.13
2022-08-01T15:50:45.032Z,2.13
2022-08-01T15:53:12.882Z,1.38
2022-08-01T15:55:40.539Z,1.75
2022-08-01T15:58:08.278Z,2.10
2022-08-01T16:00:40.069Z,1.52
2022-08-01T16:03:27.693Z,2.72
2022-08-01T16:05:56.859Z,3.50
2022-08-01T16:08:24.402Z,6.57
2022-08-01T16:10:52.063Z,3.30
2022-08-01T16:13:19.727Z,1.55
2022-08-01T16:15:47.309Z,6.45
2022-08-01T16:18:16.002Z,1.42
2022-08-01T16:20:45.733Z,2.13
2022-08-01T16:23:16.385Z,3.25
2022-08-01T16:25:44.582Z,3.50
2022-08-01T16:28:13.879Z,4.57
2022-08-01T16:30:54.230Z,2.22
2022-08-01T16:33:45.633Z,1.38
2022-08-01T16:36:17.407Z,1.13
2022-08-01T16:38:46.485Z,2.40
2022-08-01T16:41:19.509Z,0.88
2022-08-01T16:43:56.918Z,4.18
2022-08-01T16:46:25.329Z,1.40
2022-08-01T16:48:53.142Z,2.33
2022-08-01T16:51:20.913Z,2.03
2022-08-01T16:53:49.885Z,2.92
2022-08-01T16:56:17.549Z,2.88
2022-08-01T16:58:45.214Z,1.45
2022-08-01T17:01:58.817Z,2.67
2022-08-01T17:04:12.978Z,1.00
2022-08-01T17:06:40.768Z,1.23
2022-08-01T17:09:09.840Z,1.58
2022-08-01T17:11:37.682Z,2.10
2022-08-01T17:14:05.622Z,2.30
2022-08-01T17:16:33.414Z,2.80
2022-08-01T17:19:02.015Z,1.63
2022-08-01T17:21:30.045Z,1.40
2022-08-01T17:23:57.643Z,1.88
2022-08-01T17:26:26.677Z,1.75
2022-08-01T17:28:54.354Z,2.47
2022-08-01T17:31:22.060Z,1.42
2022-08-01T17:33:54.376Z,2.22
2022-08-01T17:36:22.774Z,1.80
2022-08-01T17:38:50.666Z,2.08
2022-08-01T17:41:18.681Z,2.60
2022-08-01T17:43:48.064Z,0.70
2022-08-01T17:46:15.891Z,1.35
2022-08-01T17:48:44.383Z,2.45
2022-08-01T17:51:12.085Z,2.17
2022-08-01T17:53:56.700Z,4.05
2022-08-01T17:56:25.304Z,2.20
2022-08-01T17:58:54.383Z,2.25
2022-08-01T18:03:49.761Z,3.47
2022-08-01T18:08:47.764Z,2.47
2022-08-01T18:11:15.647Z,2.60
2022-08-01T18:13:43.343Z,1.75
2022-08-01T18:16:13.055Z,2.67
2022-08-01T18:18:41.100Z,2.65
2022-08-01T18:21:08.895Z,1.80
2022-08-01T18:23:36.918Z,3.17
2022-08-01T18:26:07.460Z,3.30
2022-08-01T18:28:41.753Z,3.25
2022-08-01T18:31:16.901Z,1.88
2022-08-01T18:33:44.691Z,1.65
2022-08-01T18:36:25.466Z,2.13
2022-08-01T18:39:00.053Z,3.17
2022-08-01T18:41:27.740Z,3.15
2022-08-01T18:44:03.934Z,0.98
2022-08-01T18:46:45.425Z,4.97
2022-08-01T18:49:14.403Z,2.05
2022-08-01T18:51:44.732Z,1.58
2022-08-01T18:54:13.194Z,3.28
2022-08-01T18:56:40.897Z,4.22
2022-08-01T18:59:08.541Z,1.70
2022-08-01T19:01:36.202Z,4.65
2022-08-01T19:04:03.838Z,1.85
2022-08-01T19:06:32.782Z,1.33
2022-08-01T19:09:02.505Z,1.98
2022-08-01T19:11:30.815Z,2.53
2022-08-01T19:13:58.513Z,1.45
2022-08-01T19:16:26.421Z,1.75
2022-08-01T19:18:54.154Z,6.85
2022-08-01T19:21:22.073Z,4.15
2022-08-01T19:24:08.707Z,1.90
2022-08-01T19:26:36.922Z,3.08
2022-08-01T19:29:07.467Z,2.92
2022-08-01T19:31:35.100Z,2.15
2022-08-01T19:34:03.201Z,1.98
2022-08-01T19:36:30.921Z,2.60
2022-08-01T19:38:59.900Z,2.53
2022-08-01T19:41:27.511Z,2.38
2022-08-01T19:43:55.109Z,1.73
2022-08-01T19:46:22.904Z,1.67
2022-08-01T19:48:54.113Z,2.67
2022-08-01T19:51:22.261Z,1.90
2022-08-01T19:53:55.157Z,2.20
2022-08-01T19:56:25.562Z,1.25
2022-08-01T19:59:00.012Z,2.42
2022-08-01T20:01:28.207Z,3.50
2022-08-01T20:03:55.950Z,1.10
2022-08-01T20:06:26.252Z,3.95
2022-08-01T20:08:58.968Z,3.60
2022-08-01T20:11:28.265Z,2.03
2022-08-01T20:13:56.028Z,1.20
2022-08-01T20:16:23.778Z,2.38
2022-08-01T20:18:51.389Z,1.60
2022-08-01T20:21:19.112Z,5.30
2022-08-01T20:23:46.895Z,1.75
2022-08-01T20:26:14.789Z,2.92
2022-08-01T20:28:45.864Z,2.58
2022-08-01T20:31:13.623Z,1.48
2022-08-01T20:33:42.988Z,2.38
2022-08-01T20:36:25.812Z,5.47
2022-08-01T20:38:53.820Z,11.70
2022-08-01T20:41:22.495Z,5.32
2022-08-01T20:43:52.836Z,2.45
2022-08-01T20:46:20.445Z,3.80
2022-08-01T20:48:48.276Z,3.50
2022-08-01T20:51:15.869Z,4.72
2022-08-01T20:53:43.868Z,1.60
2022-08-01T20:56:13.134Z,3.60
2022-08-01T20:58:46.912Z,1.88
2022-08-01T21:01:16.925Z,2.85
2022-08-01T21:03:46.481Z,2.50
2022-08-01T21:06:14.627Z,2.95
2022-08-01T21:08:42.725Z,2.03
2022-08-01T21:11:11.609Z,2.28
2022-08-01T21:13:40.181Z,3.80
2022-08-01T21:16:24.077Z,3.10
2022-08-01T21:19:17.247Z,2.75
2022-08-01T21:21:44.409Z,3.10
2022-08-01T21:24:14.599Z,4.15
2022-08-01T21:26:42.293Z,2.33
2022-08-01T21:29:11.003Z,5.63
2022-08-01T21:31:46.310Z,2.03
2022-08-01T21:34:15.325Z,2.65
2022-08-01T21:36:42.938Z,1.88
2022-08-01T21:39:10.652Z,2.78
2022-08-01T21:42:04.890Z,3.03
2022-08-01T21:44:29.073Z,3.30
2022-08-01T21:46:57.066Z,4.93
2022-08-01T21:49:26.113Z,2.05
2022-08-01T21:52:01.091Z,1.83
2022-08-01T21:54:29.562Z,2.17
2022-08-01T21:56:59.078Z,3.38
2022-08-01T21:59:29.916Z,2.80
2022-08-01T22:01:59.427Z,3.67
2022-08-01T22:06:55.828Z,3.10
2022-08-01T22:09:24.241Z,3.17
2022-08-01T22:12:10.237Z,2.63
2022-08-01T22:14:40.758Z,1.67
2022-08-01T22:17:08.318Z,2.45
2022-08-01T22:19:45.052Z,4.15
2022-08-01T22:22:44.168Z,4.18
2022-08-01T22:25:02.534Z,2.80
2022-08-01T22:28:08.119Z,3.75
2022-08-01T22:30:20.520Z,5.35
2022-08-01T22:33:15.084Z,1.75
2022-08-01T22:35:35.746Z,3.53
2022-08-01T22:38:09.746Z,7.95
2022-08-01T22:40:37.741Z,5.25
2022-08-01T22:43:06.905Z,4.57
2022-08-01T22:45:35.547Z,5.05
2022-08-01T22:48:05.480Z,3.63
2022-08-01T22:50:36.676Z,5.03
2022-08-01T22:53:07.103Z,7.47
2022-08-01T22:55:59.360Z,8.30
2022-08-01T22:58:23.908Z,5.93
2022-08-01T23:00:53.694Z,6.13
2022-08-01T23:03:21.774Z,7.25
2022-08-01T23:05:52.588Z,6.25
2022-08-01T23:08:20.512Z,7.13
2022-08-01T23:10:49.404Z,6.53
2022-08-01T23:13:18.047Z,7.75
2022-08-01T23:15:52.321Z,5.80
2022-08-01T23:18:20.293Z,8.00
2022-08-01T23:20:47.935Z,6.97
2022-08-01T23:23:15.740Z,6.75
2022-08-01T23:25:43.400Z,8.43
2022-08-01T23:28:12.412Z,4.10
2022-08-01T23:30:39.972Z,5.93
2022-08-01T23:33:07.591Z,8.45
2022-08-01T23:35:35.645Z,6.35
2022-08-01T23:38:06.860Z,5.93
2022-08-01T23:40:34.922Z,5.15
2022-08-01T23:43:02.755Z,7.80
2022-08-01T23:46:02.504Z,6.35
2022-08-01T23:48:19.308Z,8.98
2022-08-01T23:50:46.983Z,7.80
2022-08-01T23:53:14.622Z,5.90
2022-08-01T23:55:44.038Z,5.50
2022-08-01T23:58:12.154Z,5.57
